sensor_id;sensor_type;location;lat;lon;timestamp;temperature;humidity
80132;SHT30;69442;51.442;10.564;2023-09-19T00:00:56;19.62;66.11
80132;SHT30;69442;51.442;10.564;2023-09-19T00:03:22;19.62;65.99
80132;SHT30;69442;51.442;10.564;2023-09-19T00:05:48;19.58;66.50
80132;SHT30;69442;51.442;10.564;2023-09-19T00:08:15;19.52;66.55
80132;SHT30;69442;51.442;10.564;2023-09-19T00:10:42;19.52;66.14
80132;SHT30;69442;51.442;10.564;2023-09-19T00:13:08;19.48;66.02
80132;SHT30;69442;51.442;10.564;2023-09-19T00:15:40;19.45;66.10
80132;SHT30;69442;51.442;10.564;2023-09-19T00:18:06;19.47;66.02
80132;SHT30;69442;51.442;10.564;2023-09-19T00:20:35;19.39;66.47
80132;SHT30;69442;51.442;10.564;2023-09-19T00:23:00;19.41;66.18
80132;SHT30;69442;51.442;10.564;2023-09-19T00:25:28;19.36;66.58
80132;SHT30;69442;51.442;10.564;2023-09-19T00:27:54;19.32;66.52
80132;SHT30;69442;51.442;10.564;2023-09-19T00:30:19;19.32;66.21
80132;SHT30;69442;51.442;10.564;2023-09-19T00:32:49;19.28;66.12
80132;SHT30;69442;51.442;10.564;2023-09-19T00:35:20;19.27;67.06
80132;SHT30;69442;51.442;10.564;2023-09-19T00:37:45;19.25;66.35
80132;SHT30;69442;51.442;10.564;2023-09-19T00:40:11;19.21;67.27
80132;SHT30;69442;51.442;10.564;2023-09-19T00:42:47;19.20;66.26
80132;SHT30;69442;51.442;10.564;2023-09-19T00:45:14;19.18;66.13
80132;SHT30;69442;51.442;10.564;2023-09-19T00:47:44;19.15;66.07
80132;SHT30;69442;51.442;10.564;2023-09-19T00:50:15;19.13;66.11
80132;SHT30;69442;51.442;10.564;2023-09-19T00:52:42;19.11;66.24
80132;SHT30;69442;51.442;10.564;2023-09-19T00:55:09;19.08;66.08
80132;SHT30;69442;51.442;10.564;2023-09-19T00:57:37;19.11;65.94
80132;SHT30;69442;51.442;10.564;2023-09-19T01:00:04;19.07;65.98
80132;SHT30;69442;51.442;10.564;2023-09-19T01:02:32;19.04;66.34
80132;SHT30;69442;51.442;10.564;2023-09-19T01:04:58;19.00;66.33
80132;SHT30;69442;51.442;10.564;2023-09-19T01:07:24;18.96;66.35
80132;SHT30;69442;51.442;10.564;2023-09-19T01:09:49;18.93;66.09
80132;SHT30;69442;51.442;10.564;2023-09-19T01:12:22;18.93;66.00
80132;SHT30;69442;51.442;10.564;2023-09-19T01:14:55;18.90;65.88
80132;SHT30;69442;51.442;10.564;2023-09-19T01:17:29;18.87;65.90
80132;SHT30;69442;51.442;10.564;2023-09-19T01:20:11;18.86;65.88
80132;SHT30;69442;51.442;10.564;2023-09-19T01:23:05;18.83;65.99
80132;SHT30;69442;51.442;10.564;2023-09-19T01:30:40;18.79;65.81
80132;SHT30;69442;51.442;10.564;2023-09-19T01:33:09;18.75;65.85
80132;SHT30;69442;51.442;10.564;2023-09-19T01:35:38;18.73;66.46
80132;SHT30;69442;51.442;10.564;2023-09-19T01:38:05;18.69;66.22
80132;SHT30;69442;51.442;10.564;2023-09-19T01:40:32;18.72;65.99
80132;SHT30;69442;51.442;10.564;2023-09-19T01:48:40;18.68;65.88
80132;SHT30;69442;51.442;10.564;2023-09-19T01:51:10;18.68;65.87
80132;SHT30;69442;51.442;10.564;2023-09-19T01:53:44;18.68;65.82
80132;SHT30;69442;51.442;10.564;2023-09-19T01:56:25;18.65;65.82
80132;SHT30;69442;51.442;10.564;2023-09-19T01:58:56;18.65;65.69
80132;SHT30;69442;51.442;10.564;2023-09-19T02:01:24;18.62;65.68
80132;SHT30;69442;51.442;10.564;2023-09-19T02:03:50;18.59;65.64
80132;SHT30;69442;51.442;10.564;2023-09-19T02:06:16;18.58;65.59
80132;SHT30;69442;51.442;10.564;2023-09-19T02:08:43;18.56;65.54
80132;SHT30;69442;51.442;10.564;2023-09-19T02:11:13;18.55;65.53
80132;SHT30;69442;51.442;10.564;2023-09-19T02:13:38;18.51;65.49
80132;SHT30;69442;51.442;10.564;2023-09-19T02:16:04;18.49;65.46
80132;SHT30;69442;51.442;10.564;2023-09-19T02:18:30;18.48;65.46
80132;SHT30;69442;51.442;10.564;2023-09-19T02:20:56;18.47;65.48
80132;SHT30;69442;51.442;10.564;2023-09-19T02:23:24;18.44;65.33
80132;SHT30;69442;51.442;10.564;2023-09-19T02:25:56;18.44;65.35
80132;SHT30;69442;51.442;10.564;2023-09-19T02:28:28;18.40;65.27
80132;SHT30;69442;51.442;10.564;2023-09-19T02:31:00;18.41;65.20
80132;SHT30;69442;51.442;10.564;2023-09-19T02:33:25;18.35;65.17
80132;SHT30;69442;51.442;10.564;2023-09-19T02:35:57;18.34;65.16
80132;SHT30;69442;51.442;10.564;2023-09-19T02:38:23;18.34;65.15
80132;SHT30;69442;51.442;10.564;2023-09-19T02:40:50;18.30;64.98
80132;SHT30;69442;51.442;10.564;2023-09-19T02:43:16;18.25;65.07
80132;SHT30;69442;51.442;10.564;2023-09-19T02:45:42;18.20;65.05
80132;SHT30;69442;51.442;10.564;2023-09-19T02:48:07;18.17;65.03
80132;SHT30;69442;51.442;10.564;2023-09-19T02:50:33;18.15;64.99
80132;SHT30;69442;51.442;10.564;2023-09-19T02:52:59;18.13;64.95
80132;SHT30;69442;51.442;10.564;2023-09-19T02:55:24;18.08;64.98
80132;SHT30;69442;51.442;10.564;2023-09-19T02:57:52;18.03;65.04
80132;SHT30;69442;51.442;10.564;2023-09-19T03:00:20;18.00;65.10
80132;SHT30;69442;51.442;10.564;2023-09-19T03:02:55;17.96;65.18
80132;SHT30;69442;51.442;10.564;2023-09-19T03:05:22;17.91;65.08
80132;SHT30;69442;51.442;10.564;2023-09-19T03:07:52;17.91;65.02
80132;SHT30;69442;51.442;10.564;2023-09-19T03:10:18;17.90;65.03
80132;SHT30;69442;51.442;10.564;2023-09-19T03:12:44;17.87;65.02
80132;SHT30;69442;51.442;10.564;2023-09-19T03:15:09;17.86;64.91
80132;SHT30;69442;51.442;10.564;2023-09-19T03:17:35;17.82;64.94
80132;SHT30;69442;51.442;10.564;2023-09-19T03:20:02;17.78;64.95
80132;SHT30;69442;51.442;10.564;2023-09-19T03:22:28;17.76;64.98
80132;SHT30;69442;51.442;10.564;2023-09-19T03:24:53;17.73;64.95
80132;SHT30;69442;51.442;10.564;2023-09-19T03:27:19;17.71;64.99
80132;SHT30;69442;51.442;10.564;2023-09-19T03:29:46;17.66;65.15
80132;SHT30;69442;51.442;10.564;2023-09-19T03:32:11;17.63;64.92
80132;SHT30;69442;51.442;10.564;2023-09-19T03:34:39;17.63;64.93
80132;SHT30;69442;51.442;10.564;2023-09-19T03:37:08;17.63;64.89
80132;SHT30;69442;51.442;10.564;2023-09-19T03:39:34;17.61;64.87
80132;SHT30;69442;51.442;10.564;2023-09-19T03:42:01;17.58;64.80
80132;SHT30;69442;51.442;10.564;2023-09-19T03:44:26;17.55;64.77
80132;SHT30;69442;51.442;10.564;2023-09-19T03:46:51;17.55;64.75
80132;SHT30;69442;51.442;10.564;2023-09-19T03:49:17;17.49;65.13
80132;SHT30;69442;51.442;10.564;2023-09-19T03:51:42;17.48;64.80
80132;SHT30;69442;51.442;10.564;2023-09-19T03:54:08;17.46;64.71
80132;SHT30;69442;51.442;10.564;2023-09-19T03:56:34;17.44;64.72
80132;SHT30;69442;51.442;10.564;2023-09-19T03:58:59;17.41;64.74
80132;SHT30;69442;51.442;10.564;2023-09-19T04:01:25;17.38;64.70
80132;SHT30;69442;51.442;10.564;2023-09-19T04:03:53;17.34;64.90
80132;SHT30;69442;51.442;10.564;2023-09-19T04:06:19;17.34;64.69
80132;SHT30;69442;51.442;10.564;2023-09-19T04:08:44;17.31;64.72
80132;SHT30;69442;51.442;10.564;2023-09-19T04:11:11;17.30;64.69
80132;SHT30;69442;51.442;10.564;2023-09-19T04:13:37;17.30;64.67
80132;SHT30;69442;51.442;10.564;2023-09-19T04:16:03;17.27;64.64
80132;SHT30;69442;51.442;10.564;2023-09-19T04:18:29;17.21;64.66
80132;SHT30;69442;51.442;10.564;2023-09-19T04:20:58;17.17;64.59
80132;SHT30;69442;51.442;10.564;2023-09-19T04:23:23;17.18;64.58
80132;SHT30;69442;51.442;10.564;2023-09-19T04:25:49;17.16;64.56
80132;SHT30;69442;51.442;10.564;2023-09-19T04:28:15;17.14;64.56
80132;SHT30;69442;51.442;10.564;2023-09-19T04:30:41;17.11;64.51
80132;SHT30;69442;51.442;10.564;2023-09-19T04:33:06;17.07;64.46
80132;SHT30;69442;51.442;10.564;2023-09-19T04:35:32;17.06;64.43
80132;SHT30;69442;51.442;10.564;2023-09-19T04:37:57;17.06;64.42
80132;SHT30;69442;51.442;10.564;2023-09-19T04:40:23;17.00;64.46
80132;SHT30;69442;51.442;10.564;2023-09-19T04:42:57;16.99;64.42
80132;SHT30;69442;51.442;10.564;2023-09-19T04:45:23;16.99;64.40
80132;SHT30;69442;51.442;10.564;2023-09-19T04:47:48;16.96;64.38
80132;SHT30;69442;51.442;10.564;2023-09-19T04:50:14;16.92;64.39
80132;SHT30;69442;51.442;10.564;2023-09-19T04:52:43;16.90;64.35
80132;SHT30;69442;51.442;10.564;2023-09-19T04:55:15;16.86;64.43
80132;SHT30;69442;51.442;10.564;2023-09-19T04:57:48;16.83;64.44
80132;SHT30;69442;51.442;10.564;2023-09-19T05:00:16;16.84;64.48
80132;SHT30;69442;51.442;10.564;2023-09-19T05:02:42;16.79;64.50
80132;SHT30;69442;51.442;10.564;2023-09-19T05:05:09;16.77;64.56
80132;SHT30;69442;51.442;10.564;2023-09-19T05:07:42;16.77;64.49
80132;SHT30;69442;51.442;10.564;2023-09-19T05:10:09;16.73;64.54
80132;SHT30;69442;51.442;10.564;2023-09-19T05:12:35;16.72;64.68
80132;SHT30;69442;51.442;10.564;2023-09-19T05:15:05;16.72;64.45
80132;SHT30;69442;51.442;10.564;2023-09-19T05:17:32;16.72;64.44
80132;SHT30;69442;51.442;10.564;2023-09-19T05:19:58;16.71;64.49
80132;SHT30;69442;51.442;10.564;2023-09-19T05:22:26;16.69;64.49
80132;SHT30;69442;51.442;10.564;2023-09-19T05:24:51;16.64;64.59
80132;SHT30;69442;51.442;10.564;2023-09-19T05:27:18;16.69;64.48
80132;SHT30;69442;51.442;10.564;2023-09-19T05:29:43;16.68;64.60
80132;SHT30;69442;51.442;10.564;2023-09-19T05:32:10;16.66;64.50
80132;SHT30;69442;51.442;10.564;2023-09-19T05:34:36;16.71;64.61
80132;SHT30;69442;51.442;10.564;2023-09-19T05:37:01;16.71;64.52
80132;SHT30;69442;51.442;10.564;2023-09-19T05:39:27;16.69;64.69
80132;SHT30;69442;51.442;10.564;2023-09-19T05:41:52;16.73;64.58
80132;SHT30;69442;51.442;10.564;2023-09-19T05:44:18;16.75;64.63
80132;SHT30;69442;51.442;10.564;2023-09-19T05:46:43;16.75;64.59
80132;SHT30;69442;51.442;10.564;2023-09-19T05:49:10;16.73;64.59
80132;SHT30;69442;51.442;10.564;2023-09-19T05:51:35;16.75;64.61
80132;SHT30;69442;51.442;10.564;2023-09-19T05:54:01;16.75;64.71
80132;SHT30;69442;51.442;10.564;2023-09-19T05:56:26;16.75;64.63
80132;SHT30;69442;51.442;10.564;2023-09-19T05:58:52;16.76;64.64
80132;SHT30;69442;51.442;10.564;2023-09-19T06:01:18;16.76;64.58
80132;SHT30;69442;51.442;10.564;2023-09-19T06:03:44;16.76;64.66
80132;SHT30;69442;51.442;10.564;2023-09-19T06:06:09;16.76;64.66
80132;SHT30;69442;51.442;10.564;2023-09-19T06:08:35;16.77;64.70
80132;SHT30;69442;51.442;10.564;2023-09-19T06:11:00;16.75;64.72
80132;SHT30;69442;51.442;10.564;2023-09-19T06:13:29;16.77;64.71
80132;SHT30;69442;51.442;10.564;2023-09-19T06:15:55;16.76;64.73
80132;SHT30;69442;51.442;10.564;2023-09-19T06:18:21;16.80;64.75
80132;SHT30;69442;51.442;10.564;2023-09-19T06:20:51;16.77;64.81
80132;SHT30;69442;51.442;10.564;2023-09-19T06:23:17;16.80;64.77
80132;SHT30;69442;51.442;10.564;2023-09-19T06:25:43;16.80;64.73
80132;SHT30;69442;51.442;10.564;2023-09-19T06:28:08;16.83;64.69
80132;SHT30;69442;51.442;10.564;2023-09-19T06:30:37;16.83;64.77
80132;SHT30;69442;51.442;10.564;2023-09-19T06:33:05;16.83;64.79
80132;SHT30;69442;51.442;10.564;2023-09-19T06:35:34;16.86;64.85
80132;SHT30;69442;51.442;10.564;2023-09-19T06:38:03;16.87;64.89
80132;SHT30;69442;51.442;10.564;2023-09-19T06:40:29;16.84;65.24
80132;SHT30;69442;51.442;10.564;2023-09-19T06:42:56;16.89;64.99
80132;SHT30;69442;51.442;10.564;2023-09-19T06:45:22;16.90;64.93
80132;SHT30;69442;51.442;10.564;2023-09-19T06:47:51;16.92;64.92
80132;SHT30;69442;51.442;10.564;2023-09-19T06:50:17;16.92;64.98
80132;SHT30;69442;51.442;10.564;2023-09-19T06:52:45;16.94;64.86
80132;SHT30;69442;51.442;10.564;2023-09-19T06:55:14;16.93;64.84
80132;SHT30;69442;51.442;10.564;2023-09-19T06:57:42;16.96;64.80
80132;SHT30;69442;51.442;10.564;2023-09-19T07:00:09;17.00;64.86
80132;SHT30;69442;51.442;10.564;2023-09-19T07:02:44;16.96;64.89
80132;SHT30;69442;51.442;10.564;2023-09-19T07:05:10;17.00;64.77
80132;SHT30;69442;51.442;10.564;2023-09-19T07:07:36;16.99;64.73
80132;SHT30;69442;51.442;10.564;2023-09-19T07:10:04;17.02;64.70
80132;SHT30;69442;51.442;10.564;2023-09-19T07:12:36;17.02;64.61
80132;SHT30;69442;51.442;10.564;2023-09-19T07:15:01;17.06;64.51
80132;SHT30;69442;51.442;10.564;2023-09-19T07:17:27;17.07;64.43
80132;SHT30;69442;51.442;10.564;2023-09-19T07:19:52;17.07;64.40
80132;SHT30;69442;51.442;10.564;2023-09-19T07:22:18;17.07;64.37
80132;SHT30;69442;51.442;10.564;2023-09-19T07:24:43;17.10;64.23
80132;SHT30;69442;51.442;10.564;2023-09-19T07:27:08;17.13;64.17
80132;SHT30;69442;51.442;10.564;2023-09-19T07:29:34;17.17;64.09
80132;SHT30;69442;51.442;10.564;2023-09-19T07:31:59;17.18;64.15
80132;SHT30;69442;51.442;10.564;2023-09-19T07:34:25;17.20;64.02
80132;SHT30;69442;51.442;10.564;2023-09-19T07:36:50;17.21;64.06
80132;SHT30;69442;51.442;10.564;2023-09-19T07:39:16;17.26;63.96
80132;SHT30;69442;51.442;10.564;2023-09-19T07:41:41;17.27;63.84
80132;SHT30;69442;51.442;10.564;2023-09-19T07:44:07;17.28;63.76
80132;SHT30;69442;51.442;10.564;2023-09-19T07:46:33;17.37;63.61
80132;SHT30;69442;51.442;10.564;2023-09-19T07:48:58;17.35;63.52
80132;SHT30;69442;51.442;10.564;2023-09-19T07:51:24;17.39;63.56
80132;SHT30;69442;51.442;10.564;2023-09-19T07:53:49;17.45;63.25
80132;SHT30;69442;51.442;10.564;2023-09-19T07:56:14;17.44;63.29
80132;SHT30;69442;51.442;10.564;2023-09-19T07:58:41;17.51;63.16
80132;SHT30;69442;51.442;10.564;2023-09-19T08:01:10;17.51;63.25
80132;SHT30;69442;51.442;10.564;2023-09-19T08:03:36;17.52;63.25
80132;SHT30;69442;51.442;10.564;2023-09-19T08:06:06;17.55;63.15
80132;SHT30;69442;51.442;10.564;2023-09-19T08:08:33;17.59;63.12
80132;SHT30;69442;51.442;10.564;2023-09-19T08:11:02;17.65;63.01
80132;SHT30;69442;51.442;10.564;2023-09-19T08:13:27;17.68;62.93
80132;SHT30;69442;51.442;10.564;2023-09-19T08:15:53;17.72;62.85
80132;SHT30;69442;51.442;10.564;2023-09-19T08:18:19;17.76;61.48
80132;SHT30;69442;51.442;10.564;2023-09-19T08:20:53;17.82;62.38
80132;SHT30;69442;51.442;10.564;2023-09-19T08:23:19;17.86;62.46
80132;SHT30;69442;51.442;10.564;2023-09-19T08:25:46;17.89;62.41
80132;SHT30;69442;51.442;10.564;2023-09-19T08:28:11;17.94;62.34
80132;SHT30;69442;51.442;10.564;2023-09-19T08:30:39;17.98;62.24
80132;SHT30;69442;51.442;10.564;2023-09-19T08:33:05;18.04;62.09
80132;SHT30;69442;51.442;10.564;2023-09-19T08:35:31;18.10;61.98
80132;SHT30;69442;51.442;10.564;2023-09-19T08:37:57;18.15;62.03
80132;SHT30;69442;51.442;10.564;2023-09-19T08:40:22;18.20;61.97
80132;SHT30;69442;51.442;10.564;2023-09-19T08:42:53;18.27;61.93
80132;SHT30;69442;51.442;10.564;2023-09-19T08:45:22;18.32;61.84
80132;SHT30;69442;51.442;10.564;2023-09-19T08:48:14;18.38;61.72
80132;SHT30;69442;51.442;10.564;2023-09-19T08:51:02;18.45;61.55
80132;SHT30;69442;51.442;10.564;2023-09-19T08:56:10;18.55;61.52
80132;SHT30;69442;51.442;10.564;2023-09-19T08:58:44;18.60;61.40
80132;SHT30;69442;51.442;10.564;2023-09-19T09:01:10;18.65;61.30
80132;SHT30;69442;51.442;10.564;2023-09-19T09:03:38;18.70;61.26
80132;SHT30;69442;51.442;10.564;2023-09-19T09:06:07;18.75;61.17
80132;SHT30;69442;51.442;10.564;2023-09-19T09:08:36;18.77;61.14
80132;SHT30;69442;51.442;10.564;2023-09-19T09:11:02;18.80;61.04
80132;SHT30;69442;51.442;10.564;2023-09-19T09:13:28;18.85;60.98
80132;SHT30;69442;51.442;10.564;2023-09-19T09:15:53;18.90;60.97
80132;SHT30;69442;51.442;10.564;2023-09-19T09:18:19;18.96;60.98
80132;SHT30;69442;51.442;10.564;2023-09-19T09:20:45;18.99;60.87
80132;SHT30;69442;51.442;10.564;2023-09-19T09:23:12;19.02;60.88
80132;SHT30;69442;51.442;10.564;2023-09-19T09:25:51;19.06;60.71
80132;SHT30;69442;51.442;10.564;2023-09-19T09:28:23;19.11;60.65
80132;SHT30;69442;51.442;10.564;2023-09-19T09:30:49;19.15;60.75
80132;SHT30;69442;51.442;10.564;2023-09-19T09:33:18;19.22;60.67
80132;SHT30;69442;51.442;10.564;2023-09-19T09:35:57;19.30;60.49
80132;SHT30;69442;51.442;10.564;2023-09-19T09:38:27;19.36;60.18
80132;SHT30;69442;51.442;10.564;2023-09-19T09:40:56;19.42;60.25
80132;SHT30;69442;51.442;10.564;2023-09-19T09:43:33;19.49;60.25
80132;SHT30;69442;51.442;10.564;2023-09-19T09:46:11;19.58;59.30
80132;SHT30;69442;51.442;10.564;2023-09-19T09:49:01;19.65;59.62
80132;SHT30;69442;51.442;10.564;2023-09-19T09:51:40;19.73;59.37
80132;SHT30;69442;51.442;10.564;2023-09-19T09:54:16;19.82;59.67
80132;SHT30;69442;51.442;10.564;2023-09-19T09:56:59;19.89;59.63
80132;SHT30;69442;51.442;10.564;2023-09-19T10:02:17;20.03;58.06
80132;SHT30;69442;51.442;10.564;2023-09-19T10:04:58;20.14;59.15
80132;SHT30;69442;51.442;10.564;2023-09-19T10:07:40;20.22;57.40
80132;SHT30;69442;51.442;10.564;2023-09-19T10:10:08;20.29;58.66
80132;SHT30;69442;51.442;10.564;2023-09-19T10:12:55;20.38;58.70
80132;SHT30;69442;51.442;10.564;2023-09-19T10:15:31;20.45;58.77
80132;SHT30;69442;51.442;10.564;2023-09-19T10:18:00;20.51;58.80
80132;SHT30;69442;51.442;10.564;2023-09-19T10:20:28;20.55;58.71
80132;SHT30;69442;51.442;10.564;2023-09-19T10:22:57;20.66;58.50
80132;SHT30;69442;51.442;10.564;2023-09-19T10:25:28;20.72;58.27
80132;SHT30;69442;51.442;10.564;2023-09-19T10:27:57;20.83;57.51
80132;SHT30;69442;51.442;10.564;2023-09-19T10:30:28;20.90;58.07
80132;SHT30;69442;51.442;10.564;2023-09-19T10:33:00;20.98;57.85
80132;SHT30;69442;51.442;10.564;2023-09-19T10:35:26;21.10;57.55
80132;SHT30;69442;51.442;10.564;2023-09-19T10:37:54;21.14;57.80
80132;SHT30;69442;51.442;10.564;2023-09-19T10:40:20;21.24;57.70
80132;SHT30;69442;51.442;10.564;2023-09-19T10:42:48;21.32;57.58
80132;SHT30;69442;51.442;10.564;2023-09-19T10:45:16;21.39;57.42
80132;SHT30;69442;51.442;10.564;2023-09-19T10:47:45;21.45;57.33
80132;SHT30;69442;51.442;10.564;2023-09-19T10:50:19;21.53;56.83
80132;SHT30;69442;51.442;10.564;2023-09-19T10:52:47;21.60;56.19
80132;SHT30;69442;51.442;10.564;2023-09-19T10:55:19;21.66;56.53
80132;SHT30;69442;51.442;10.564;2023-09-19T10:57:46;21.73;56.66
80132;SHT30;69442;51.442;10.564;2023-09-19T11:00:12;21.77;56.63
80132;SHT30;69442;51.442;10.564;2023-09-19T11:03:20;21.90;55.66
80132;SHT30;69442;51.442;10.564;2023-09-19T11:06:12;21.97;54.92
80132;SHT30;69442;51.442;10.564;2023-09-19T11:08:57;22.01;55.87
80132;SHT30;69442;51.442;10.564;2023-09-19T11:14:29;22.13;55.62
80132;SHT30;69442;51.442;10.564;2023-09-19T11:30:32;22.46;54.28
80132;SHT30;69442;51.442;10.564;2023-09-19T11:33:23;22.52;54.47
80132;SHT30;69442;51.442;10.564;2023-09-19T11:36:03;22.56;54.28
80132;SHT30;69442;51.442;10.564;2023-09-19T11:43:53;22.74;53.78
80132;SHT30;69442;51.442;10.564;2023-09-19T11:46:24;22.83;54.28
80132;SHT30;69442;51.442;10.564;2023-09-19T11:48:52;22.90;54.23
80132;SHT30;69442;51.442;10.564;2023-09-19T11:51:19;22.94;53.74
80132;SHT30;69442;51.442;10.564;2023-09-19T11:53:47;22.97;53.83
80132;SHT30;69442;51.442;10.564;2023-09-19T11:56:15;23.01;51.76
80132;SHT30;69442;51.442;10.564;2023-09-19T11:58:43;23.06;51.67
80132;SHT30;69442;51.442;10.564;2023-09-19T12:01:13;23.07;53.01
80132;SHT30;69442;51.442;10.564;2023-09-19T12:03:47;23.14;52.79
80132;SHT30;69442;51.442;10.564;2023-09-19T12:06:16;23.15;53.10
80132;SHT30;69442;51.442;10.564;2023-09-19T12:08:42;23.21;53.03
80132;SHT30;69442;51.442;10.564;2023-09-19T12:11:13;23.22;53.08
80132;SHT30;69442;51.442;10.564;2023-09-19T12:13:47;23.25;52.56
80132;SHT30;69442;51.442;10.564;2023-09-19T12:16:18;23.28;52.44
80132;SHT30;69442;51.442;10.564;2023-09-19T12:18:47;23.31;52.43
80132;SHT30;69442;51.442;10.564;2023-09-19T12:26:42;23.42;51.92
80132;SHT30;69442;51.442;10.564;2023-09-19T12:29:15;23.45;52.36
80132;SHT30;69442;51.442;10.564;2023-09-19T12:31:52;23.48;52.05
80132;SHT30;69442;51.442;10.564;2023-09-19T12:34:30;23.49;52.42
80132;SHT30;69442;51.442;10.564;2023-09-19T12:42:12;23.59;50.64
80132;SHT30;69442;51.442;10.564;2023-09-19T12:44:46;23.65;50.14
80132;SHT30;69442;51.442;10.564;2023-09-19T12:47:17;23.67;50.48
80132;SHT30;69442;51.442;10.564;2023-09-19T12:50:10;23.67;50.72
80132;SHT30;69442;51.442;10.564;2023-09-19T12:52:47;23.70;50.56
80132;SHT30;69442;51.442;10.564;2023-09-19T12:55:28;23.76;49.80
80132;SHT30;69442;51.442;10.564;2023-09-19T13:00:36;23.79;48.98
80132;SHT30;69442;51.442;10.564;2023-09-19T13:03:17;23.81;47.96
80132;SHT30;69442;51.442;10.564;2023-09-19T13:05:55;23.84;50.12
80132;SHT30;69442;51.442;10.564;2023-09-19T13:08:28;23.86;49.93
80132;SHT30;69442;51.442;10.564;2023-09-19T13:11:16;23.90;49.44
80132;SHT30;69442;51.442;10.564;2023-09-19T13:16:33;23.94;49.63
80132;SHT30;69442;51.442;10.564;2023-09-19T13:19:00;23.97;48.66
80132;SHT30;69442;51.442;10.564;2023-09-19T13:21:30;23.98;49.38
80132;SHT30;69442;51.442;10.564;2023-09-19T13:24:22;24.03;48.37
80132;SHT30;69442;51.442;10.564;2023-09-19T13:26:48;24.03;47.82
80132;SHT30;69442;51.442;10.564;2023-09-19T13:29:15;24.04;46.64
80132;SHT30;69442;51.442;10.564;2023-09-19T13:31:51;24.08;46.73
80132;SHT30;69442;51.442;10.564;2023-09-19T13:34:20;24.07;46.38
80132;SHT30;69442;51.442;10.564;2023-09-19T13:36:46;24.10;46.19
80132;SHT30;69442;51.442;10.564;2023-09-19T13:39:17;24.11;46.18
80132;SHT30;69442;51.442;10.564;2023-09-19T13:41:49;24.10;45.51
80132;SHT30;69442;51.442;10.564;2023-09-19T13:44:15;24.11;44.34
80132;SHT30;69442;51.442;10.564;2023-09-19T13:46:42;24.08;43.42
80132;SHT30;69442;51.442;10.564;2023-09-19T13:49:10;24.07;43.93
80132;SHT30;69442;51.442;10.564;2023-09-19T13:51:36;24.07;43.31
80132;SHT30;69442;51.442;10.564;2023-09-19T13:54:02;24.07;43.82
80132;SHT30;69442;51.442;10.564;2023-09-19T13:56:28;24.04;43.47
80132;SHT30;69442;51.442;10.564;2023-09-19T13:58:54;24.04;43.64
80132;SHT30;69442;51.442;10.564;2023-09-19T14:01:20;24.01;43.62
80132;SHT30;69442;51.442;10.564;2023-09-19T14:03:45;23.98;43.57
80132;SHT30;69442;51.442;10.564;2023-09-19T14:06:15;23.97;43.25
80132;SHT30;69442;51.442;10.564;2023-09-19T14:08:41;23.96;43.27
80132;SHT30;69442;51.442;10.564;2023-09-19T14:11:08;23.89;42.57
80132;SHT30;69442;51.442;10.564;2023-09-19T14:13:33;23.84;42.60
80132;SHT30;69442;51.442;10.564;2023-09-19T14:16:05;23.80;43.23
80132;SHT30;69442;51.442;10.564;2023-09-19T14:18:32;23.80;42.95
80132;SHT30;69442;51.442;10.564;2023-09-19T14:20:57;23.76;43.35
80132;SHT30;69442;51.442;10.564;2023-09-19T14:23:23;23.67;42.67
80132;SHT30;69442;51.442;10.564;2023-09-19T14:25:50;23.63;43.00
80132;SHT30;69442;51.442;10.564;2023-09-19T14:28:15;23.63;43.70
80132;SHT30;69442;51.442;10.564;2023-09-19T14:30:41;23.61;43.90
80132;SHT30;69442;51.442;10.564;2023-09-19T14:33:06;23.56;43.78
80132;SHT30;69442;51.442;10.564;2023-09-19T14:35:32;23.52;43.77
80132;SHT30;69442;51.442;10.564;2023-09-19T14:37:58;23.45;43.86
80132;SHT30;69442;51.442;10.564;2023-09-19T14:40:23;23.42;44.64
80132;SHT30;69442;51.442;10.564;2023-09-19T14:42:48;23.41;44.40
80132;SHT30;69442;51.442;10.564;2023-09-19T14:45:14;23.34;44.75
80132;SHT30;69442;51.442;10.564;2023-09-19T14:47:45;23.29;44.58
80132;SHT30;69442;51.442;10.564;2023-09-19T14:50:11;23.24;44.23
80132;SHT30;69442;51.442;10.564;2023-09-19T14:52:38;23.17;43.84
80132;SHT30;69442;51.442;10.564;2023-09-19T14:55:06;23.12;44.38
80132;SHT30;69442;51.442;10.564;2023-09-19T14:57:31;23.07;44.66
80132;SHT30;69442;51.442;10.564;2023-09-19T14:59:57;23.01;44.45
80132;SHT30;69442;51.442;10.564;2023-09-19T15:02:23;22.97;44.50
80132;SHT30;69442;51.442;10.564;2023-09-19T15:04:48;22.93;44.98
80132;SHT30;69442;51.442;10.564;2023-09-19T15:07:13;22.86;44.63
80132;SHT30;69442;51.442;10.564;2023-09-19T15:09:42;22.82;44.61
80132;SHT30;69442;51.442;10.564;2023-09-19T15:12:09;22.73;44.51
80132;SHT30;69442;51.442;10.564;2023-09-19T15:14:34;22.69;44.88
80132;SHT30;69442;51.442;10.564;2023-09-19T15:17:00;22.66;45.31
80132;SHT30;69442;51.442;10.564;2023-09-19T15:19:25;22.60;44.75
80132;SHT30;69442;51.442;10.564;2023-09-19T15:21:50;22.56;44.38
80132;SHT30;69442;51.442;10.564;2023-09-19T15:24:16;22.49;44.85
80132;SHT30;69442;51.442;10.564;2023-09-19T15:26:43;22.46;44.97
80132;SHT30;69442;51.442;10.564;2023-09-19T15:29:10;22.41;45.27
80132;SHT30;69442;51.442;10.564;2023-09-19T15:31:36;22.38;45.55
80132;SHT30;69442;51.442;10.564;2023-09-19T15:34:04;22.34;44.84
80132;SHT30;69442;51.442;10.564;2023-09-19T15:36:32;22.28;45.48
80132;SHT30;69442;51.442;10.564;2023-09-19T15:39:01;22.24;45.48
80132;SHT30;69442;51.442;10.564;2023-09-19T15:41:29;22.18;45.46
80132;SHT30;69442;51.442;10.564;2023-09-19T15:43:56;22.13;45.47
80132;SHT30;69442;51.442;10.564;2023-09-19T15:46:23;22.10;45.64
80132;SHT30;69442;51.442;10.564;2023-09-19T15:48:48;22.07;45.80
80132;SHT30;69442;51.442;10.564;2023-09-19T15:51:14;22.01;45.44
80132;SHT30;69442;51.442;10.564;2023-09-19T15:53:44;21.94;46.12
80132;SHT30;69442;51.442;10.564;2023-09-19T15:56:11;21.89;46.41
80132;SHT30;69442;51.442;10.564;2023-09-19T15:58:40;21.83;45.95
80132;SHT30;69442;51.442;10.564;2023-09-19T16:01:06;21.79;45.89
80132;SHT30;69442;51.442;10.564;2023-09-19T16:03:39;21.76;46.58
80132;SHT30;69442;51.442;10.564;2023-09-19T16:06:12;21.69;46.71
80132;SHT30;69442;51.442;10.564;2023-09-19T16:08:41;21.62;46.23
80132;SHT30;69442;51.442;10.564;2023-09-19T16:11:07;21.59;46.89
80132;SHT30;69442;51.442;10.564;2023-09-19T16:13:34;21.52;47.18
80132;SHT30;69442;51.442;10.564;2023-09-19T16:15:59;21.48;47.34
80132;SHT30;69442;51.442;10.564;2023-09-19T16:18:25;21.43;47.44